Timeline UpdatesTrip UpdatesNews PostsPvt PostsTravel TipsAdmin PostsConv PostsFollowed PostsChat RequestsBlog PostsPNR Posts

Disclaimer
Search
 
 
Fri Sep 19, 2014 23:23:33 ISTHomeTrainsΣChainsAtlasPNRForumGalleryNewsFAQTripsMembersLoginFeedback
No Recent News for this Train
Other Trains in the News **new
Latest...
Will be short originated from Faizabad from 27/11 to 04/12.
Mon Nov 25, 2013 (01:33PM)
⇐ Return Journey: Train# 54334

54333/Varanasi Lucknow Passenger (UnReserved)

Time-Table HAS CHANGED.
Sep 02 (11:44PM)
Change Departure Station:
Change Arrival Station:
Post a Train Travel TipPost a Train Travel Tip **new
Post a Comment/Question/Picture/VideoPost a Comment/Question/Picture/Video
Pantry/Catering
???
RSA - Rake Sharing
Rake/Coach Composition
Loco
News    PNR    Forum    Time-Table    Availability    Fare Chart    Map    Arr/Dep History    Trips    Gallery    ΣChains    X/O    Timeline    
Travel Time: 7h 32m    35 halts    Distance: 248 km    Avg Speed: 32 km/hr
Type: Passenger
Zone: NR/Northern
Departs @ 04:05
Platform# 7
SMTWTFS
Varanasi Junction/BSB 
Arrives @ 11:37
Platform# ???
SMTWTFS
Patranga/PTH 

35 halts. 36 intermediate Stations between Varanasi Junction and Patranga

Show ALL intermediate Stations  Show Old Time-Table

#CodeStation NameX/OArrivesAvgDepartsAvgHaltPFDay#KmSpeedElevZoneAddress
1BSBVaranasi Junction (9)»  -04:10 04:05-710.03482mNRVaranasi 221002, Uttar Pradesh
2SOPShivpur (3)  04:20 04:15-04:21 04:16-1m--15.64881mNRVaranasi, Uttar Pradesh
3BRPTBirapatti (2)X  04:29 04:24-04:30 04:25-1m--112.05084mNRRd Varanasi Uttar Pradesh, Uttar Pradesh
4BTPBabatpur (2)X  04:38 04:33-04:39 04:34-1m--118.65484mNRSatomahua-Mangari Rd, Uttar Pradesh
5PDRDPindra Road (2)X  04:45 04:40-04:46 04:41-1m--124.03981mNRSatomahua-Mangari Rd, Uttar Pradesh
6KSFKhalispur (2)X  04:52 04:47-04:53 04:48-1m--127.94483mNRPhulpur, Uttar Pradesh
7TLMDTrilochan Mahdo (2)X  05:01 04:55-05:02 04:56-1m--133.04683mNRNational Highway 56, Uttar Pradesh
8JLLJalalGanj (2)  05:09 05:04-05:10 05:05-1m--139.25187mNRJalalganj Railway Station, Uttar Pradesh
9SIQSarkoni (2)X  05:17 05:12-05:18 05:13-1m--145.13385mNRBandipur, Uttar Pradesh
10ZBDZafarabad Junction (4)  05:29 05:24-05:30 05:25-1m--151.22683mNRNational Highway 56, Uttar Pradesh
11JNUJaunpur Junction (5)  05:39 05:40-05:41-2 1m--157.73783mNRJaunpur, Uttar Pradesh
12MGWNMahgawan Halt (1)  05:51-05:52-1m1163.85184mNRDalhanpur, Uttar Pradesh
13MIHMihrawan (1)  05:59-06:00-1m1169.74988mNRChak Bhavani Shanker, Uttar Pradesh
14MNKNManikalan Halt (1)X  06:07-06:08-1m1175.44285mNRNawab Yousuf Rd, Uttar Pradesh
15KSKheta Sarai (1)  06:15-06:16-1m1180.43088mNRKheta Sarai, Uttar Pradesh
16SHGShahganj Junction (4)X  06:35 06:37-06:43 06:39-8 2m1191.06090mNRShahganj, Uttar Pradesh
17BWIBilwai (1)X  06:48 06:50-06:49 06:51-1m11101.95591mNRBilwai, Uttar Pradesh
18TLGRTulsi NagarX  06:57 06:58-06:58 06:59-1m--1108.35191mNRNawab Yousuf Rd, Uttar Pradesh
19MLPRMalipur (2)  07:07 07:08-07:08 07:09-1m--1116.05992mNRMalipur, Uttar Pradesh
20JFGJafarganj  07:18 07:19-07:19 07:20-1m--1125.95092mNRNawab Yousuf Rd, Uttar Pradesh
21ABPAkbarpur Junction (2)X  07:31-07:33-2m--1135.15892mNRAkbarpur, Uttar Pradesh
22KTHEKatahri  07:44 07:45-07:45 07:46-1m--1146.76495mNRKatehri, Uttar Pradesh
23GGJGoshainGanj (3)  07:55 07:56-07:56 07:57-1m--1157.35698mNRGoshainganj, Uttar Pradesh
24ULNUlna BhariX  08:05 08:06-08:06 08:07-1m--1165.757104mNRNawab Yousuf Rd, Uttar Pradesh
25BLGBilhar Ghat  08:15 08:16-08:16 08:17-1m--1174.254104mNRNawab Yousuf Rd, Uttar Pradesh
26DRGDarshannagar (2)  08:27 08:28-08:28 08:29-1m--1184.127103mNRayodhya, Uttar Pradesh
27AYAyodhya Junction (3)X  08:39 08:40-08:40 08:41-1m--1189.01998mNRAyodhya, Uttar Pradesh
28ACNDAcharya Narendra Dev Nagar  08:54 08:55-08:55 08:56-1m--1193.52104mNRFaizabad, Uttar Pradesh
29FDFaizabad Junction (5)X  10:00-10:13-13m--1195.743104mNRFaizabad, Uttar Pradesh
30SLRPSalarpurX  10:24 10:25-10:25 10:26-1m--1204.444106mNRJaganpur, Uttar Pradesh
31SLWSohwalX  10:34 10:35-10:35 10:36-1m--1211.051107mNRFaizabad Rd, Uttar Pradesh
32DELODeorakot  10:44 10:45-10:45 10:46-1m--1218.635110mNRDewracoat, Uttar Pradesh
33BNMBaragaon  10:55 10:56-10:56 10:57-1m--1224.643115mNRFaizabad Rd, Uttar Pradesh
34GMUGauriyamau  11:02 11:03-11:03 11:04-1m--1228.833108mNRFaizabad Rd, Uttar Pradesh
35RDLRudauli (2)  11:12 11:13-11:13 11:14-1m--1233.833112mNRRudauli, Uttar Pradesh
36RZNRauzagaon  11:23 11:24-11:24 11:25-1m--1239.445111mNRFaizabad Rd, Uttar Pradesh
37PTHPatranga•  11:36 11:37-11:37 11:38-1m--1248.437113mNRFaizabad Rd, Uttar Pradesh
38DYDDaryabad  11:51 11:52-11:52 11:53-1m--1257.039116mNRFaizabad Rd, Uttar Pradesh
39SYKSaidkhanpur  12:07 12:08-12:08 12:09-1m--1266.738116mNRSaidkhanpur, Uttar Pradesh
40SGJSafdarGanj  12:24 12:25-12:25 12:26-1m--1276.847116mNRFaizabad Rd, Uttar Pradesh
41RESRasauliXO  12:39 12:40-12:40 12:41-1m--1287.73125mNRFaizabad Rd, Uttar Pradesh
42BBKBarabanki Junction (4)X  15:09 15:05-15:10-1 5m--1295.030122mNRPin-225001, Uttar Pradesh
43SFHSafedabad (3)  15:25-15:26-1m--1302.629120mNRBarabanki, Uttar Pradesh
44JRRJugaur (1)X  15:33-15:34-1m11306.037123mNRCanal Rd, Uttar Pradesh
45MLMalhaur (3)  15:44 15:43-15:45-1 2m--1311.424121mNRLucknow, Uttar Pradesh
46LKOLucknow Charbagh NR (9)  16:15--41323.4-123mNR226004, Uttar Pradesh
Scroll to Top
Scroll to Bottom